createdAt,value
2019-06-01T00:00:16.042Z,506.30
2019-06-01T00:02:45.305Z,515.25
2019-06-01T00:05:10.426Z,548.75
2019-06-01T00:07:36.548Z,538.55
2019-06-01T00:10:06.247Z,524.90
2019-06-01T00:12:32.428Z,568.85
2019-06-01T00:14:58.496Z,533.55
2019-06-01T00:17:24.580Z,521.40
2019-06-01T00:19:50.648Z,511.98
2019-06-01T00:22:16.747Z,534.22
2019-06-01T00:24:43.821Z,510.20
2019-06-01T00:27:10.021Z,526.45
2019-06-01T00:29:36.088Z,530.40
2019-06-01T00:32:02.181Z,514.42
2019-06-01T00:34:28.250Z,521.75
2019-06-01T00:36:54.317Z,512.90
2019-06-01T00:39:20.411Z,524.42
2019-06-01T00:41:46.481Z,501.90
2019-06-01T00:44:12.563Z,526.55
2019-06-01T00:46:38.652Z,505.77
2019-06-01T00:49:04.739Z,511.43
2019-06-01T00:51:30.933Z,541.25
2019-06-01T00:53:57.113Z,516.35
2019-06-01T00:56:23.186Z,508.05
2019-06-01T00:58:49.819Z,513.75
2019-06-01T01:01:16.137Z,505.43
2019-06-01T01:03:42.200Z,510.02
2019-06-01T01:06:08.291Z,534.27
2019-06-01T01:08:34.374Z,519.02
2019-06-01T01:11:00.562Z,509.07
2019-06-01T01:13:27.046Z,518.48
2019-06-01T01:15:53.510Z,504.90
2019-06-01T01:18:20.023Z,514.55
2019-06-01T01:20:46.150Z,508.50
2019-06-01T01:23:12.222Z,506.30
2019-06-01T01:25:38.283Z,510.57
2019-06-01T01:28:04.608Z,529.67
2019-06-01T01:30:30.989Z,509.18
2019-06-01T01:32:58.896Z,518.45
2019-06-01T01:35:25.119Z,526.15
2019-06-01T01:37:56.575Z,501.65
2019-06-01T01:40:22.664Z,503.12
2019-06-01T01:42:48.883Z,547.33
2019-06-01T01:45:15.661Z,504.45
2019-06-01T01:47:41.756Z,507.08
2019-06-01T01:50:08.421Z,508.15
2019-06-01T01:52:34.504Z,555.20
2019-06-01T01:55:00.568Z,495.90
2019-06-01T01:57:26.727Z,518.80
2019-06-01T01:59:53.338Z,502.55
2019-06-01T02:02:19.600Z,514.02
2019-06-01T02:04:45.681Z,499.08
2019-06-01T02:07:11.758Z,507.10
2019-06-01T02:09:37.831Z,508.30
2019-06-01T02:12:03.904Z,501.65
2019-06-01T02:14:29.985Z,530.60
2019-06-01T02:16:56.308Z,508.92
2019-06-01T02:19:22.546Z,504.65
2019-06-01T02:21:48.616Z,499.55
2019-06-01T02:24:15.043Z,508.35
2019-06-01T02:26:41.123Z,505.30
2019-06-01T02:29:07.303Z,504.53
2019-06-01T02:31:41.384Z,503.35
2019-06-01T02:34:03.363Z,509.00
2019-06-01T02:36:29.416Z,504.32
2019-06-01T02:38:56.531Z,502.37
2019-06-01T02:41:22.907Z,502.23
2019-06-01T02:43:49.004Z,503.23
2019-06-01T02:46:15.184Z,500.77
2019-06-01T02:48:41.265Z,543.80
2019-06-01T02:51:07.333Z,505.22
2019-06-01T02:53:33.421Z,502.97
2019-06-01T02:55:59.911Z,509.67
2019-06-01T02:58:26.185Z,501.95
2019-06-01T03:00:56.583Z,547.23
2019-06-01T03:03:22.744Z,501.93
2019-06-01T03:05:49.538Z,500.10
2019-06-01T03:08:17.217Z,501.27
2019-06-01T03:10:44.785Z,502.62
2019-06-01T03:13:14.175Z,491.10
2019-06-01T03:15:41.776Z,501.02
2019-06-01T03:18:11.862Z,501.57
2019-06-01T03:20:39.528Z,514.35
2019-06-01T03:23:08.613Z,537.38
2019-06-01T03:25:38.291Z,493.85
2019-06-01T03:28:08.214Z,494.80
2019-06-01T03:30:44.614Z,498.90
2019-06-01T03:33:10.108Z,506.80
2019-06-01T03:35:37.147Z,512.67
2019-06-01T03:38:03.297Z,557.45
2019-06-01T03:40:29.479Z,518.73
2019-06-01T03:42:55.648Z,511.28
2019-06-01T03:45:21.740Z,514.85
2019-06-01T03:47:47.830Z,499.25
2019-06-01T03:50:13.901Z,519.10
2019-06-01T03:52:39.983Z,532.47
2019-06-01T03:55:06.168Z,509.13
2019-06-01T03:57:32.229Z,565.02
2019-06-01T03:59:58.290Z,556.47
2019-06-01T04:02:32.805Z,521.05
2019-06-01T04:04:52.438Z,512.77
2019-06-01T04:07:18.882Z,503.62
2019-06-01T04:09:44.962Z,517.60
2019-06-01T04:12:12.010Z,508.85
2019-06-01T04:14:38.270Z,514.90
2019-06-01T04:17:04.346Z,508.77
2019-06-01T04:19:30.523Z,516.12
2019-06-01T04:21:56.615Z,510.95
2019-06-01T04:24:22.683Z,510.93
2019-06-01T04:26:48.752Z,517.42
2019-06-01T04:29:14.837Z,509.95
2019-06-01T04:31:40.938Z,508.42
2019-06-01T04:34:07.088Z,544.30
2019-06-01T04:36:33.171Z,500.27
2019-06-01T04:38:59.242Z,517.92
2019-06-01T04:41:25.319Z,529.27
2019-06-01T04:43:51.391Z,517.85
2019-06-01T04:46:17.488Z,513.80
2019-06-01T04:48:43.551Z,538.27
2019-06-01T04:51:11.603Z,531.23
2019-06-01T04:53:37.617Z,507.02
2019-06-01T04:56:04.785Z,510.00
2019-06-01T04:58:30.963Z,551.50
2019-06-01T05:00:57.028Z,516.08
2019-06-01T05:03:23.110Z,511.05
2019-06-01T05:05:49.192Z,506.32
2019-06-01T05:08:15.614Z,533.27
2019-06-01T05:10:41.860Z,514.90
2019-06-01T05:13:07.967Z,517.48
2019-06-01T05:15:34.043Z,521.45
2019-06-01T05:18:00.111Z,522.40
2019-06-01T05:20:26.199Z,520.00
2019-06-01T05:22:52.276Z,539.70
2019-06-01T05:25:18.460Z,528.95
2019-06-01T05:27:44.528Z,616.27
2019-06-01T05:30:11.585Z,533.92
2019-06-01T05:32:37.892Z,519.80
2019-06-01T05:35:04.886Z,513.95
2019-06-01T05:37:30.953Z,536.73
2019-06-01T05:39:57.038Z,526.25
2019-06-01T05:42:23.123Z,532.45
2019-06-01T05:44:49.202Z,524.02
2019-06-01T05:47:16.254Z,545.98
2019-06-01T05:49:42.434Z,540.28
2019-06-01T05:52:08.520Z,538.17
2019-06-01T05:54:34.604Z,559.65
2019-06-01T05:57:00.673Z,535.17
2019-06-01T05:59:26.753Z,541.12
2019-06-01T06:01:52.823Z,538.92
2019-06-01T06:04:19.543Z,527.02
2019-06-01T06:06:45.772Z,539.78
2019-06-01T06:09:13.225Z,581.40
2019-06-01T06:11:39.547Z,544.65
2019-06-01T06:14:05.616Z,545.75
2019-06-01T06:16:32.101Z,557.70
2019-06-01T06:18:58.165Z,553.90
2019-06-01T06:21:24.228Z,553.38
2019-06-01T06:23:50.312Z,546.12
2019-06-01T06:26:17.305Z,553.10
2019-06-01T06:28:44.384Z,578.08
2019-06-01T06:31:10.447Z,552.47
2019-06-01T06:33:37.040Z,575.38
2019-06-01T06:36:03.273Z,559.60
2019-06-01T06:38:29.336Z,571.90
2019-06-01T06:40:55.446Z,554.65
2019-06-01T06:43:29.689Z,576.82
2019-06-01T06:45:49.485Z,589.85
2019-06-01T06:48:15.553Z,592.80
2019-06-01T06:50:42.943Z,597.80
2019-06-01T06:53:22.414Z,563.83
2019-06-01T06:55:37.113Z,556.92
2019-06-01T06:58:03.191Z,560.40
2019-06-01T07:00:29.285Z,578.02
2019-06-01T07:02:55.444Z,737.92
2019-06-01T07:05:21.545Z,584.50
2019-06-01T07:07:47.708Z,579.27
2019-06-01T07:10:14.104Z,586.67
2019-06-01T07:12:40.292Z,724.10
2019-06-01T07:15:06.485Z,575.10
2019-06-01T07:17:32.643Z,578.52
2019-06-01T07:19:58.820Z,578.62
2019-06-01T07:22:25.810Z,577.62
2019-06-01T07:24:52.281Z,642.35
2019-06-01T07:27:18.372Z,609.80
2019-06-01T07:29:44.550Z,599.55
2019-06-01T07:32:10.830Z,607.10
2019-06-01T07:34:41.561Z,603.58
2019-06-01T07:37:04.889Z,604.60
2019-06-01T07:39:30.971Z,607.25
2019-06-01T07:41:57.085Z,633.23
2019-06-01T07:44:23.239Z,610.80
2019-06-01T07:46:49.302Z,595.83
2019-06-01T07:49:15.375Z,618.42
2019-06-01T07:51:41.439Z,599.90
2019-06-01T07:54:07.519Z,638.12
2019-06-01T07:56:33.592Z,605.27
2019-06-01T07:58:59.679Z,613.77
2019-06-01T08:01:27.146Z,647.85
2019-06-01T08:03:53.737Z,622.37
2019-06-01T08:06:21.913Z,625.20
2019-06-01T08:08:47.792Z,606.87
2019-06-01T08:11:13.858Z,613.50
2019-06-01T08:13:39.938Z,593.45
2019-06-01T08:16:06.012Z,626.82
2019-06-01T08:18:32.337Z,601.35
2019-06-01T08:20:58.472Z,629.75
2019-06-01T08:23:24.561Z,599.48
2019-06-01T08:25:50.657Z,592.90
2019-06-01T08:28:16.801Z,635.23
2019-06-01T08:30:42.885Z,605.90
2019-06-01T08:33:09.060Z,597.25
2019-06-01T08:35:35.143Z,612.55
2019-06-01T08:38:01.232Z,620.30
2019-06-01T08:40:27.428Z,612.08
2019-06-01T08:42:53.607Z,674.10
2019-06-01T08:45:19.749Z,634.25
2019-06-01T08:47:45.895Z,637.20
2019-06-01T08:50:12.391Z,626.02
2019-06-01T08:52:38.460Z,618.50
2019-06-01T08:55:06.348Z,622.45
2019-06-01T08:57:32.520Z,646.95
2019-06-01T08:59:58.819Z,596.35
2019-06-01T09:02:24.996Z,621.42
2019-06-01T09:04:51.152Z,617.53
2019-06-01T09:07:17.235Z,632.85
2019-06-01T09:09:43.319Z,649.77
2019-06-01T09:12:09.498Z,661.38
2019-06-01T09:14:35.691Z,652.73
2019-06-01T09:17:01.972Z,716.00
2019-06-01T09:19:29.327Z,658.98
2019-06-01T09:21:55.607Z,643.75
2019-06-01T09:24:21.734Z,639.80
2019-06-01T09:26:47.904Z,655.35
2019-06-01T09:29:13.968Z,710.23
2019-06-01T09:31:40.055Z,633.35
2019-06-01T09:34:06.140Z,638.22
2019-06-01T09:36:32.463Z,700.20
2019-06-01T09:38:58.709Z,702.40
2019-06-01T09:41:24.784Z,717.80
2019-06-01T09:43:50.881Z,708.87
2019-06-01T09:46:16.943Z,706.55
2019-06-01T09:48:43.015Z,705.17
2019-06-01T09:51:09.207Z,713.25
2019-06-01T09:53:36.091Z,704.08
2019-06-01T09:56:02.968Z,641.30
2019-06-01T09:58:30.166Z,723.62
2019-06-01T10:00:56.409Z,628.90
2019-06-01T10:03:22.492Z,641.58
2019-06-01T10:06:01.320Z,686.12
2019-06-01T10:08:16.547Z,627.95
2019-06-01T10:10:42.640Z,675.87
2019-06-01T10:13:08.713Z,640.65
2019-06-01T10:15:34.803Z,638.98
2019-06-01T10:18:00.857Z,642.92
2019-06-01T10:20:26.905Z,690.45
2019-06-01T10:22:52.969Z,658.42
2019-06-01T10:25:19.021Z,641.58
2019-06-01T10:27:45.091Z,787.83
2019-06-01T10:30:12.537Z,641.27
2019-06-01T10:32:39.794Z,642.53
2019-06-01T10:35:06.900Z,670.48
2019-06-01T10:37:33.365Z,663.03
2019-06-01T10:39:59.557Z,648.83
2019-06-01T10:42:25.645Z,656.50
2019-06-01T10:44:51.716Z,718.45
2019-06-01T10:47:17.791Z,712.17
2019-06-01T10:49:43.865Z,649.62
2019-06-01T10:52:09.951Z,632.52
2019-06-01T10:54:36.211Z,643.45
2019-06-01T10:57:02.400Z,700.90
2019-06-01T10:59:28.474Z,659.13
2019-06-01T11:01:54.664Z,631.97
2019-06-01T11:04:20.732Z,636.23
2019-06-01T11:06:48.833Z,649.77
2019-06-01T11:09:14.795Z,656.52
2019-06-01T11:11:41.128Z,683.48
2019-06-01T11:14:07.457Z,699.75
2019-06-01T11:16:35.059Z,714.05
2019-06-01T11:19:01.320Z,674.12
2019-06-01T11:21:27.404Z,672.35
2019-06-01T11:23:53.582Z,754.92
2019-06-01T11:26:19.664Z,656.80
2019-06-01T11:28:45.754Z,715.70
2019-06-01T11:31:11.831Z,679.40
2019-06-01T11:33:38.229Z,706.30
2019-06-01T11:36:04.485Z,714.40
2019-06-01T11:38:30.579Z,699.83
2019-06-01T11:40:56.647Z,666.27
2019-06-01T11:43:22.761Z,672.40
2019-06-01T11:45:48.924Z,724.92
2019-06-01T11:48:15.008Z,727.00
2019-06-01T11:50:41.272Z,700.75
2019-06-01T11:53:07.577Z,657.20
2019-06-01T11:55:35.043Z,731.00
2019-06-01T11:58:01.321Z,736.62
2019-06-01T12:00:27.794Z,713.33
2019-06-01T12:02:53.963Z,746.63
2019-06-01T12:05:20.043Z,764.87
2019-06-01T12:07:46.214Z,746.42
2019-06-01T12:10:12.712Z,693.77
2019-06-01T12:12:40.050Z,722.33
2019-06-01T12:15:06.973Z,731.73
2019-06-01T12:17:33.061Z,717.37
2019-06-01T12:19:59.128Z,753.52
2019-06-01T12:22:25.208Z,695.17
2019-06-01T12:24:51.291Z,754.00
2019-06-01T12:27:17.385Z,735.37
2019-06-01T12:29:43.775Z,718.30
2019-06-01T12:32:09.948Z,755.45
2019-06-01T12:34:36.048Z,776.30
2019-06-01T12:37:02.133Z,835.95
2019-06-01T12:39:28.229Z,916.27
2019-06-01T12:41:54.305Z,973.63
2019-06-01T12:44:20.390Z,1009.60
2019-06-01T12:46:46.950Z,1042.87
2019-06-01T12:49:13.340Z,1062.20
2019-06-01T12:51:40.565Z,1081.43
2019-06-01T12:54:06.997Z,1096.57
2019-06-01T12:56:33.093Z,1106.70
2019-06-01T12:58:59.160Z,1077.70
2019-06-01T13:01:25.243Z,1078.90
2019-06-01T13:03:52.067Z,1100.03
2019-06-01T13:06:18.199Z,1105.07
2019-06-01T13:08:44.736Z,1128.30
2019-06-01T13:11:10.911Z,1108.27
2019-06-01T13:13:36.985Z,1104.13
2019-06-01T13:16:03.072Z,1085.37
2019-06-01T13:18:29.150Z,1082.07
2019-06-01T13:20:55.256Z,1059.67
2019-06-01T13:23:21.309Z,1026.73
2019-06-01T13:25:47.671Z,1022.77
2019-06-01T13:28:13.949Z,1019.53
2019-06-01T13:30:40.024Z,1034.10
2019-06-01T13:33:06.234Z,1046.77
2019-06-01T13:35:32.420Z,1051.53
2019-06-01T13:38:10.679Z,1059.30
2019-06-01T13:40:26.504Z,1075.97
2019-06-01T13:42:53.210Z,1100.33
2019-06-01T13:45:19.460Z,1093.53
2019-06-01T13:47:45.555Z,1088.80
2019-06-01T13:50:12.047Z,1089.17
2019-06-01T13:52:38.136Z,1090.10
2019-06-01T13:55:05.830Z,1101.90
2019-06-01T13:57:31.896Z,1108.67
2019-06-01T13:59:58.016Z,1106.30
2019-06-01T14:02:24.160Z,1105.70
2019-06-01T14:04:50.249Z,1090.53
2019-06-01T14:07:16.311Z,1093.60
2019-06-01T14:09:42.375Z,1104.07
2019-06-01T14:12:08.459Z,1101.20
2019-06-01T14:14:34.528Z,1110.93
2019-06-01T14:17:00.623Z,1117.73
2019-06-01T14:19:26.709Z,1135.83
2019-06-01T14:21:54.065Z,1128.73
2019-06-01T14:24:20.481Z,1114.07
2019-06-01T14:26:47.951Z,1112.77
2019-06-01T14:29:14.363Z,1127.47
2019-06-01T14:31:40.430Z,1112.93
2019-06-01T14:34:06.533Z,1125.97
2019-06-01T14:36:32.603Z,1135.60
2019-06-01T14:38:58.919Z,1127.70
2019-06-01T14:41:25.251Z,1137.33
2019-06-01T14:43:51.324Z,1132.53
2019-06-01T14:46:17.504Z,1136.77
2019-06-01T14:48:43.570Z,1143.67
2019-06-01T14:51:09.656Z,1130.00
2019-06-01T14:53:35.721Z,1132.83
2019-06-01T14:56:01.783Z,1120.63
2019-06-01T14:58:27.859Z,1109.60
2019-06-01T15:00:54.593Z,1100.60
2019-06-01T15:03:20.800Z,1117.93
2019-06-01T15:05:48.067Z,1115.23
2019-06-01T15:08:14.465Z,1109.57
2019-06-01T15:10:40.538Z,1122.63
2019-06-01T15:13:06.642Z,1120.07
2019-06-01T15:15:32.799Z,1128.97
2019-06-01T15:17:58.969Z,1125.83
2019-06-01T15:20:25.061Z,1136.80
2019-06-01T15:22:52.187Z,1138.03
2019-06-01T15:25:18.413Z,1139.77
2019-06-01T15:27:44.489Z,1164.47
2019-06-01T15:30:13.101Z,1150.50
2019-06-01T15:32:39.314Z,1150.17
2019-06-01T15:35:07.560Z,1145.77
2019-06-01T15:37:33.658Z,1127.53
2019-06-01T15:39:59.832Z,1122.37
2019-06-01T15:42:25.900Z,1098.57
2019-06-01T15:44:53.026Z,1080.47
2019-06-01T15:47:19.259Z,1084.67
2019-06-01T15:49:45.363Z,1094.93
2019-06-01T15:52:11.518Z,1103.13
2019-06-01T15:54:37.594Z,1097.70
2019-06-01T15:57:03.760Z,1085.13
2019-06-01T15:59:29.856Z,1080.37
2019-06-01T16:01:57.290Z,1045.13
2019-06-01T16:04:23.613Z,1030.83
2019-06-01T16:06:49.703Z,1017.47
2019-06-01T16:09:15.773Z,1018.63
2019-06-01T16:11:41.859Z,1032.63
2019-06-01T16:14:07.940Z,1035.50
2019-06-01T16:16:34.028Z,1013.40
2019-06-01T16:19:05.739Z,994.73
2019-06-01T16:21:28.090Z,981.00
2019-06-01T16:23:54.171Z,951.57
2019-06-01T16:26:20.251Z,949.87
2019-06-01T16:28:46.346Z,950.43
2019-06-01T16:31:12.452Z,963.03
2019-06-01T16:33:38.527Z,982.03
2019-06-01T16:36:05.568Z,994.47
2019-06-01T16:38:31.780Z,986.77
2019-06-01T16:40:57.894Z,973.73
2019-06-01T16:43:24.267Z,992.60
2019-06-01T16:45:50.564Z,986.20
2019-06-01T16:48:16.640Z,965.33
2019-06-01T16:50:42.919Z,947.47
2019-06-01T16:53:09.020Z,956.15
2019-06-01T16:55:35.106Z,928.95
2019-06-01T16:58:01.352Z,907.92
2019-06-01T17:00:27.768Z,908.05
2019-06-01T17:02:53.845Z,904.30
2019-06-01T17:05:20.043Z,887.52
2019-06-01T17:07:46.116Z,892.77
2019-06-01T17:10:25.861Z,887.92
2019-06-01T17:12:43.496Z,886.35
2019-06-01T17:15:11.084Z,887.05
2019-06-01T17:17:37.156Z,859.17
2019-06-01T17:20:05.335Z,850.45
2019-06-01T17:22:31.515Z,837.35
2019-06-01T17:24:57.804Z,817.13
2019-06-01T17:27:23.890Z,824.27
2019-06-01T17:29:49.980Z,797.42
2019-06-01T17:32:23.945Z,753.35
2019-06-01T17:34:44.032Z,747.87
2019-06-01T17:37:10.128Z,730.70
2019-06-01T17:39:36.198Z,773.55
2019-06-01T17:42:02.490Z,753.62
2019-06-01T17:44:29.055Z,693.17
2019-06-01T17:46:55.180Z,760.70
2019-06-01T17:49:21.338Z,774.10
2019-06-01T17:51:49.008Z,704.25
2019-06-01T17:54:15.077Z,676.98
2019-06-01T17:56:41.156Z,701.60
2019-06-01T17:59:07.544Z,691.73
2019-06-01T18:01:33.799Z,685.17
2019-06-01T18:03:59.865Z,653.20
2019-06-01T18:06:26.256Z,638.27
2019-06-01T18:08:52.324Z,632.62
2019-06-01T18:11:18.405Z,619.95
2019-06-01T18:13:44.473Z,615.28
2019-06-01T18:16:10.564Z,624.08
2019-06-01T18:18:36.847Z,623.52
2019-06-01T18:21:04.169Z,627.42
2019-06-01T18:23:30.408Z,650.75
2019-06-01T18:25:56.576Z,683.53
2019-06-01T18:28:22.691Z,633.50
2019-06-01T18:30:49.171Z,640.95
2019-06-01T18:33:15.279Z,646.00
2019-06-01T18:35:41.360Z,656.95
2019-06-01T18:38:07.755Z,640.62
2019-06-01T18:40:34.124Z,712.25
2019-06-01T18:43:04.038Z,651.55
2019-06-01T18:45:30.911Z,622.92
2019-06-01T18:47:57.197Z,632.85
2019-06-01T18:50:23.378Z,637.72
2019-06-01T18:52:49.672Z,621.05
2019-06-01T18:55:15.755Z,664.85
2019-06-01T18:57:45.628Z,744.45
2019-06-01T19:00:15.176Z,642.55
2019-06-01T19:02:41.092Z,663.35
2019-06-01T19:05:09.139Z,644.40
2019-06-01T19:07:35.569Z,625.25
2019-06-01T19:10:05.262Z,636.47
2019-06-01T19:12:31.432Z,623.62
2019-06-01T19:14:57.518Z,625.87
2019-06-01T19:17:23.705Z,638.22
2019-06-01T19:19:49.770Z,653.58
2019-06-01T19:22:16.731Z,666.48
2019-06-01T19:24:42.932Z,689.20
2019-06-01T19:27:09.032Z,629.50
2019-06-01T19:29:35.108Z,638.20
2019-06-01T19:32:01.215Z,635.70
2019-06-01T19:34:27.413Z,617.92
2019-06-01T19:36:53.580Z,618.55
2019-06-01T19:39:21.392Z,614.08
2019-06-01T19:41:47.483Z,613.40
2019-06-01T19:44:13.688Z,620.40
2019-06-01T19:46:39.931Z,615.80
2019-06-01T19:49:06.011Z,624.83
2019-06-01T19:51:32.199Z,620.27
2019-06-01T19:53:58.332Z,627.42
2019-06-01T19:56:24.440Z,639.52
2019-06-01T19:58:50.516Z,642.45
2019-06-01T20:01:16.567Z,652.55
2019-06-01T20:03:42.631Z,617.12
2019-06-01T20:06:08.691Z,617.37
2019-06-01T20:08:34.786Z,622.40
2019-06-01T20:11:01.112Z,623.40
2019-06-01T20:13:27.267Z,622.08
2019-06-01T20:15:53.369Z,623.50
2019-06-01T20:18:19.462Z,617.48
2019-06-01T20:20:45.747Z,622.98
2019-06-01T20:23:13.050Z,617.27
2019-06-01T20:25:39.428Z,631.20
2019-06-01T20:28:05.629Z,623.45
2019-06-01T20:30:31.934Z,636.80
2019-06-01T20:32:58.022Z,640.40
2019-06-01T20:35:24.084Z,640.45
2019-06-01T20:37:50.177Z,632.23
2019-06-01T20:40:16.333Z,635.92
2019-06-01T20:42:42.559Z,685.97
2019-06-01T20:45:08.828Z,655.83
2019-06-01T20:47:34.933Z,652.25
2019-06-01T20:50:02.725Z,655.20
2019-06-01T20:52:28.885Z,635.97
2019-06-01T20:54:55.173Z,652.80
2019-06-01T20:57:21.516Z,659.95
2019-06-01T20:59:47.832Z,659.98
2019-06-01T21:02:14.006Z,647.40
2019-06-01T21:04:40.097Z,648.02
2019-06-01T21:07:06.261Z,651.87
2019-06-01T21:09:32.472Z,640.70
2019-06-01T21:11:58.656Z,639.70
2019-06-01T21:14:24.760Z,648.10
2019-06-01T21:16:51.035Z,627.75
2019-06-01T21:19:18.145Z,619.37
2019-06-01T21:21:44.482Z,622.48
2019-06-01T21:24:10.576Z,619.33
2019-06-01T21:26:36.643Z,614.02
2019-06-01T21:29:03.223Z,628.33
2019-06-01T21:31:29.320Z,615.25
2019-06-01T21:33:55.407Z,615.08
2019-06-01T21:36:21.611Z,675.17
2019-06-01T21:38:47.793Z,639.20
2019-06-01T21:41:15.389Z,657.58
2019-06-01T21:43:41.758Z,653.88
2019-06-01T21:46:07.831Z,630.90
2019-06-01T21:48:34.011Z,637.10
2019-06-01T21:51:00.073Z,638.42
2019-06-01T21:53:26.669Z,614.83
2019-06-01T21:55:52.948Z,634.08
2019-06-01T21:58:20.935Z,618.37
2019-06-01T22:00:47.724Z,586.75
2019-06-01T22:03:14.111Z,620.33
2019-06-01T22:05:40.784Z,574.00
2019-06-01T22:08:06.952Z,580.63
2019-06-01T22:10:33.043Z,584.03
2019-06-01T22:12:59.099Z,620.25
2019-06-01T22:15:25.874Z,612.65
2019-06-01T22:17:52.084Z,615.25
2019-06-01T22:20:18.280Z,593.37
2019-06-01T22:22:44.347Z,563.17
2019-06-01T22:25:10.452Z,593.83
2019-06-01T22:27:36.553Z,581.17
2019-06-01T22:30:04.125Z,593.02
2019-06-01T22:32:31.772Z,597.40
2019-06-01T22:34:58.176Z,592.58
2019-06-01T22:37:24.248Z,596.20
2019-06-01T22:39:50.350Z,588.67
2019-06-01T22:42:16.404Z,601.75
2019-06-01T22:44:42.493Z,575.62
2019-06-01T22:47:08.567Z,604.77
2019-06-01T22:49:35.781Z,608.80
2019-06-01T22:52:01.868Z,619.13
2019-06-01T22:54:29.258Z,623.67
2019-06-01T22:56:55.663Z,626.25
2019-06-01T22:59:22.451Z,612.67
2019-06-01T23:01:48.716Z,592.80
2019-06-01T23:04:14.801Z,576.42
2019-06-01T23:06:40.867Z,566.48
2019-06-01T23:09:07.263Z,568.13
2019-06-01T23:11:33.534Z,573.65
2019-06-01T23:13:59.639Z,557.90
2019-06-01T23:16:25.733Z,578.65
2019-06-01T23:18:51.916Z,548.23
2019-06-01T23:21:18.030Z,556.58
2019-06-01T23:23:44.183Z,536.40
2019-06-01T23:26:10.263Z,554.67
2019-06-01T23:28:38.749Z,541.27
2019-06-01T23:31:04.419Z,557.60
2019-06-01T23:33:30.967Z,536.65
2019-06-01T23:35:57.288Z,543.60
2019-06-01T23:38:24.544Z,540.10
2019-06-01T23:40:50.851Z,546.20
2019-06-01T23:43:16.942Z,538.15
2019-06-01T23:45:43.027Z,543.37
2019-06-01T23:48:09.183Z,532.00
2019-06-01T23:50:35.269Z,546.72
2019-06-01T23:53:13.238Z,548.02
2019-06-01T23:55:29.888Z,578.33
2019-06-01T23:57:56.163Z,642.50
